sensor_id;sensor_type;location;lat;lon;timestamp;pressure;altitude;pressure_sealevel;temperature;humidity
74169;BME280;62523;53.336;83.690;2024-01-30T00:00:15;100784.09;;;-21.18;100.00
74169;BME280;62523;53.336;83.690;2024-01-30T00:05:16;100784.69;;;-21.21;100.00
74169;BME280;62523;53.336;83.690;2024-01-30T00:10:18;100774.94;;;-21.09;100.00
74169;BME280;62523;53.336;83.690;2024-01-30T00:15:19;100770.97;;;-21.07;100.00
74169;BME280;62523;53.336;83.690;2024-01-30T00:20:21;100772.09;;;-21.03;100.00
74169;BME280;62523;53.336;83.690;2024-01-30T00:25:22;100772.06;;;-20.95;100.00
74169;BME280;62523;53.336;83.690;2024-01-30T00:30:23;100782.03;;;-20.86;100.00
74169;BME280;62523;53.336;83.690;2024-01-30T00:35:25;100776.50;;;-20.73;100.00
74169;BME280;62523;53.336;83.690;2024-01-30T00:40:26;100776.50;;;-20.73;100.00
74169;BME280;62523;53.336;83.690;2024-01-30T00:45:28;100774.31;;;-20.70;100.00
74169;BME280;62523;53.336;83.690;2024-01-30T00:50:29;100773.69;;;-20.68;100.00
74169;BME280;62523;53.336;83.690;2024-01-30T00:55:30;100769.91;;;-20.73;100.00
74169;BME280;62523;53.336;83.690;2024-01-30T01:00:32;100774.09;;;-20.63;100.00
74169;BME280;62523;53.336;83.690;2024-01-30T01:05:34;100769.00;;;-20.54;100.00
74169;BME280;62523;53.336;83.690;2024-01-30T01:10:35;100770.78;;;-20.53;100.00
74169;BME280;62523;53.336;83.690;2024-01-30T01:15:36;100777.06;;;-20.48;100.00
74169;BME280;62523;53.336;83.690;2024-01-30T01:20:38;100773.63;;;-20.40;100.00
74169;BME280;62523;53.336;83.690;2024-01-30T01:25:39;100776.53;;;-20.35;100.00
74169;BME280;62523;53.336;83.690;2024-01-30T01:30:41;100781.41;;;-20.37;100.00
74169;BME280;62523;53.336;83.690;2024-01-30T01:35:42;100781.63;;;-20.44;100.00
74169;BME280;62523;53.336;83.690;2024-01-30T01:40:44;100780.84;;;-20.43;100.00
74169;BME280;62523;53.336;83.690;2024-01-30T01:45:46;100788.16;;;-20.55;100.00
74169;BME280;62523;53.336;83.690;2024-01-30T01:50:47;100769.38;;;-20.60;100.00
74169;BME280;62523;53.336;83.690;2024-01-30T01:55:49;100784.13;;;-20.63;100.00
74169;BME280;62523;53.336;83.690;2024-01-30T02:00:51;100777.94;;;-20.58;100.00
74169;BME280;62523;53.336;83.690;2024-01-30T02:06:11;100769.38;;;-20.60;100.00
74169;BME280;62523;53.336;83.690;2024-01-30T02:11:13;100770.47;;;-20.67;100.00
74169;BME280;62523;53.336;83.690;2024-01-30T02:16:14;100778.97;;;-20.65;100.00
74169;BME280;62523;53.336;83.690;2024-01-30T02:21:17;100780.13;;;-20.61;100.00
74169;BME280;62523;53.336;83.690;2024-01-30T02:26:19;100780.44;;;-20.58;100.00
74169;BME280;62523;53.336;83.690;2024-01-30T02:31:21;100786.38;;;-20.47;100.00
74169;BME280;62523;53.336;83.690;2024-01-30T02:36:22;100783.66;;;-20.40;100.00
74169;BME280;62523;53.336;83.690;2024-01-30T02:41:24;100789.94;;;-20.35;100.00
74169;BME280;62523;53.336;83.690;2024-01-30T02:46:25;100781.47;;;-20.46;100.00
74169;BME280;62523;53.336;83.690;2024-01-30T02:51:26;100789.91;;;-20.45;100.00
74169;BME280;62523;53.336;83.690;2024-01-30T02:56:28;100783.56;;;-20.50;100.00
74169;BME280;62523;53.336;83.690;2024-01-30T03:01:29;100782.78;;;-20.40;100.00
74169;BME280;62523;53.336;83.690;2024-01-30T03:06:45;100788.19;;;-20.36;100.00
74169;BME280;62523;53.336;83.690;2024-01-30T03:11:48;100773.94;;;-20.46;100.00
74169;BME280;62523;53.336;83.690;2024-01-30T03:16:49;100774.19;;;-20.34;100.00
74169;BME280;62523;53.336;83.690;2024-01-30T03:21:51;100769.34;;;-20.22;100.00
74169;BME280;62523;53.336;83.690;2024-01-30T03:26:53;100759.16;;;-20.15;100.00
74169;BME280;62523;53.336;83.690;2024-01-30T03:31:54;100755.16;;;-20.13;100.00
74169;BME280;62523;53.336;83.690;2024-01-30T03:36:56;100764.66;;;-19.90;100.00
74169;BME280;62523;53.336;83.690;2024-01-30T03:41:57;100770.88;;;-19.66;100.00
74169;BME280;62523;53.336;83.690;2024-01-30T03:46:59;100770.59;;;-19.50;100.00
74169;BME280;62523;53.336;83.690;2024-01-30T03:52:00;100768.09;;;-19.50;100.00
74169;BME280;62523;53.336;83.690;2024-01-30T03:57:01;100760.31;;;-19.43;100.00
74169;BME280;62523;53.336;83.690;2024-01-30T04:02:03;100766.06;;;-19.04;100.00
74169;BME280;62523;53.336;83.690;2024-01-30T04:07:05;100760.44;;;-18.71;100.00
74169;BME280;62523;53.336;83.690;2024-01-30T04:12:06;100758.16;;;-18.68;100.00
74169;BME280;62523;53.336;83.690;2024-01-30T04:17:08;100767.84;;;-18.42;100.00
74169;BME280;62523;53.336;83.690;2024-01-30T04:22:09;100768.50;;;-17.91;100.00
74169;BME280;62523;53.336;83.690;2024-01-30T04:27:11;100768.38;;;-17.83;100.00
74169;BME280;62523;53.336;83.690;2024-01-30T04:32:12;100763.84;;;-17.22;100.00
74169;BME280;62523;53.336;83.690;2024-01-30T04:37:13;100776.97;;;-17.59;100.00
74169;BME280;62523;53.336;83.690;2024-01-30T04:42:15;100781.91;;;-17.81;100.00
74169;BME280;62523;53.336;83.690;2024-01-30T04:47:16;100785.06;;;-17.73;100.00
74169;BME280;62523;53.336;83.690;2024-01-30T04:52:18;100785.69;;;-17.76;100.00
74169;BME280;62523;53.336;83.690;2024-01-30T04:57:19;100786.75;;;-17.94;100.00
74169;BME280;62523;53.336;83.690;2024-01-30T05:02:21;100783.38;;;-17.62;100.00
74169;BME280;62523;53.336;83.690;2024-01-30T05:07:22;100780.31;;;-17.16;100.00
74169;BME280;62523;53.336;83.690;2024-01-30T05:12:25;100773.63;;;-17.15;100.00
74169;BME280;62523;53.336;83.690;2024-01-30T05:17:27;100777.47;;;-17.30;100.00
74169;BME280;62523;53.336;83.690;2024-01-30T05:22:28;100777.00;;;-17.37;100.00
74169;BME280;62523;53.336;83.690;2024-01-30T05:27:30;100784.25;;;-17.29;100.00
74169;BME280;62523;53.336;83.690;2024-01-30T05:32:31;100773.94;;;-17.33;100.00
74169;BME280;62523;53.336;83.690;2024-01-30T05:37:32;100774.81;;;-17.10;100.00
74169;BME280;62523;53.336;83.690;2024-01-30T05:42:34;100763.59;;;-16.69;100.00
74169;BME280;62523;53.336;83.690;2024-01-30T05:47:35;100749.31;;;-16.69;100.00
74169;BME280;62523;53.336;83.690;2024-01-30T05:52:37;100747.56;;;-16.36;100.00
74169;BME280;62523;53.336;83.690;2024-01-30T05:57:38;100755.59;;;-16.30;100.00
74169;BME280;62523;53.336;83.690;2024-01-30T06:02:39;100745.03;;;-16.36;100.00
74169;BME280;62523;53.336;83.690;2024-01-30T06:07:41;100747.91;;;-16.20;100.00
74169;BME280;62523;53.336;83.690;2024-01-30T06:12:42;100734.56;;;-16.64;100.00
74169;BME280;62523;53.336;83.690;2024-01-30T06:17:44;100740.00;;;-16.70;100.00
74169;BME280;62523;53.336;83.690;2024-01-30T06:22:45;100743.19;;;-16.73;100.00
74169;BME280;62523;53.336;83.690;2024-01-30T06:27:47;100733.59;;;-16.55;100.00
74169;BME280;62523;53.336;83.690;2024-01-30T06:32:51;100736.63;;;-16.59;100.00
74169;BME280;62523;53.336;83.690;2024-01-30T06:37:53;100728.28;;;-16.12;100.00
74169;BME280;62523;53.336;83.690;2024-01-30T06:42:54;100741.81;;;-16.45;100.00
74169;BME280;62523;53.336;83.690;2024-01-30T06:47:55;100732.97;;;-16.40;100.00
74169;BME280;62523;53.336;83.690;2024-01-30T06:52:57;100729.56;;;-16.29;100.00
74169;BME280;62523;53.336;83.690;2024-01-30T06:57:58;100728.91;;;-16.26;100.00
74169;BME280;62523;53.336;83.690;2024-01-30T07:03:00;100726.34;;;-16.50;100.00
74169;BME280;62523;53.336;83.690;2024-01-30T07:08:01;100710.69;;;-16.46;100.00
74169;BME280;62523;53.336;83.690;2024-01-30T07:13:03;100722.22;;;-16.02;100.00
74169;BME280;62523;53.336;83.690;2024-01-30T07:18:06;100724.72;;;-15.67;100.00
74169;BME280;62523;53.336;83.690;2024-01-30T07:23:09;100721.72;;;-15.61;100.00
74169;BME280;62523;53.336;83.690;2024-01-30T07:28:15;100703.00;;;-15.77;100.00
74169;BME280;62523;53.336;83.690;2024-01-30T07:33:19;100702.97;;;-15.65;100.00
74169;BME280;62523;53.336;83.690;2024-01-30T07:38:21;100705.22;;;-15.08;100.00
74169;BME280;62523;53.336;83.690;2024-01-30T07:43:22;100701.56;;;-15.24;100.00
74169;BME280;62523;53.336;83.690;2024-01-30T07:48:24;100675.81;;;-14.94;100.00
74169;BME280;62523;53.336;83.690;2024-01-30T07:53:25;100668.84;;;-14.71;100.00
74169;BME280;62523;53.336;83.690;2024-01-30T07:58:27;100666.88;;;-14.89;100.00
74169;BME280;62523;53.336;83.690;2024-01-30T08:03:28;100671.78;;;-14.78;100.00
74169;BME280;62523;53.336;83.690;2024-01-30T08:08:30;100669.59;;;-15.36;100.00
74169;BME280;62523;53.336;83.690;2024-01-30T08:13:32;100673.91;;;-15.35;100.00
74169;BME280;62523;53.336;83.690;2024-01-30T08:18:33;100667.50;;;-15.30;100.00
74169;BME280;62523;53.336;83.690;2024-01-30T08:23:40;100669.53;;;-15.49;100.00
74169;BME280;62523;53.336;83.690;2024-01-30T08:28:42;100659.84;;;-15.43;100.00
74169;BME280;62523;53.336;83.690;2024-01-30T08:33:44;100665.94;;;-15.53;100.00
74169;BME280;62523;53.336;83.690;2024-01-30T08:38:45;100660.41;;;-15.35;100.00
74169;BME280;62523;53.336;83.690;2024-01-30T08:43:47;100663.16;;;-15.19;100.00
74169;BME280;62523;53.336;83.690;2024-01-30T08:48:48;100665.59;;;-15.57;100.00
74169;BME280;62523;53.336;83.690;2024-01-30T08:53:50;100672.38;;;-15.81;100.00
74169;BME280;62523;53.336;83.690;2024-01-30T08:58:52;100671.84;;;-15.77;100.00
74169;BME280;62523;53.336;83.690;2024-01-30T09:03:54;100669.34;;;-16.01;100.00
74169;BME280;62523;53.336;83.690;2024-01-30T09:08:55;100661.25;;;-16.08;100.00
74169;BME280;62523;53.336;83.690;2024-01-30T09:13:58;100655.72;;;-16.03;100.00
74169;BME280;62523;53.336;83.690;2024-01-30T09:19:00;100667.03;;;-16.10;100.00
74169;BME280;62523;53.336;83.690;2024-01-30T09:24:02;100667.88;;;-15.85;100.00
74169;BME280;62523;53.336;83.690;2024-01-30T09:29:05;100669.44;;;-15.99;100.00
74169;BME280;62523;53.336;83.690;2024-01-30T09:34:06;100667.56;;;-15.90;100.00
74169;BME280;62523;53.336;83.690;2024-01-30T09:39:08;100668.78;;;-15.97;100.00
74169;BME280;62523;53.336;83.690;2024-01-30T09:44:11;100673.25;;;-15.81;100.00
74169;BME280;62523;53.336;83.690;2024-01-30T09:49:13;100656.94;;;-15.61;100.00
74169;BME280;62523;53.336;83.690;2024-01-30T09:54:15;100654.47;;;-15.73;100.00
74169;BME280;62523;53.336;83.690;2024-01-30T09:59:17;100653.50;;;-15.50;100.00
74169;BME280;62523;53.336;83.690;2024-01-30T10:04:18;100661.88;;;-15.62;100.00
74169;BME280;62523;53.336;83.690;2024-01-30T10:09:20;100657.78;;;-15.74;100.00
74169;BME280;62523;53.336;83.690;2024-01-30T10:14:22;100653.59;;;-15.73;100.00
74169;BME280;62523;53.336;83.690;2024-01-30T10:19:24;100651.19;;;-15.72;100.00
74169;BME280;62523;53.336;83.690;2024-01-30T10:24:26;100654.03;;;-15.79;100.00
74169;BME280;62523;53.336;83.690;2024-01-30T10:29:27;100647.00;;;-15.71;100.00
74169;BME280;62523;53.336;83.690;2024-01-30T10:34:30;100639.09;;;-15.51;100.00
74169;BME280;62523;53.336;83.690;2024-01-30T10:39:31;100643.09;;;-15.66;100.00
74169;BME280;62523;53.336;83.690;2024-01-30T10:44:44;100640.13;;;-15.60;100.00
74169;BME280;62523;53.336;83.690;2024-01-30T10:49:49;100633.41;;;-15.48;100.00
74169;BME280;62523;53.336;83.690;2024-01-30T10:54:54;100629.72;;;-15.40;100.00
74169;BME280;62523;53.336;83.690;2024-01-30T10:59:57;100622.16;;;-15.40;100.00
74169;BME280;62523;53.336;83.690;2024-01-30T11:05:00;100614.41;;;-15.30;100.00
74169;BME280;62523;53.336;83.690;2024-01-30T11:10:05;100616.28;;;-15.27;100.00
74169;BME280;62523;53.336;83.690;2024-01-30T11:15:14;100615.94;;;-15.20;100.00
74169;BME280;62523;53.336;83.690;2024-01-30T11:25:20;100622.41;;;-14.98;100.00
74169;BME280;62523;53.336;83.690;2024-01-30T11:35:24;100615.31;;;-14.91;100.00
74169;BME280;62523;53.336;83.690;2024-01-30T11:40:28;100626.50;;;-15.00;100.00
74169;BME280;62523;53.336;83.690;2024-01-30T11:45:31;100625.09;;;-15.09;100.00
74169;BME280;62523;53.336;83.690;2024-01-30T11:50:33;100620.84;;;-15.10;100.00
74169;BME280;62523;53.336;83.690;2024-01-30T11:55:35;100613.91;;;-15.12;100.00
74169;BME280;62523;53.336;83.690;2024-01-30T12:00:38;100618.59;;;-15.05;100.00
74169;BME280;62523;53.336;83.690;2024-01-30T12:05:40;100610.78;;;-15.08;100.00
74169;BME280;62523;53.336;83.690;2024-01-30T12:10:44;100612.97;;;-15.01;100.00
74169;BME280;62523;53.336;83.690;2024-01-30T12:15:45;100614.69;;;-15.13;100.00
74169;BME280;62523;53.336;83.690;2024-01-30T12:20:59;100612.97;;;-15.01;100.00
74169;BME280;62523;53.336;83.690;2024-01-30T12:26:01;100613.44;;;-15.07;100.00
74169;BME280;62523;53.336;83.690;2024-01-30T12:31:05;100611.75;;;-15.19;100.00
74169;BME280;62523;53.336;83.690;2024-01-30T12:36:06;100607.50;;;-15.07;100.00
74169;BME280;62523;53.336;83.690;2024-01-30T12:41:08;100591.38;;;-14.96;100.00
74169;BME280;62523;53.336;83.690;2024-01-30T12:46:09;100587.59;;;-14.89;100.00
74169;BME280;62523;53.336;83.690;2024-01-30T12:51:11;100593.34;;;-14.92;100.00
74169;BME280;62523;53.336;83.690;2024-01-30T12:56:12;100588.97;;;-14.81;100.00
74169;BME280;62523;53.336;83.690;2024-01-30T13:01:15;100585.06;;;-14.89;100.00
74169;BME280;62523;53.336;83.690;2024-01-30T13:06:17;100587.59;;;-14.89;100.00
74169;BME280;62523;53.336;83.690;2024-01-30T13:11:18;100584.00;;;-14.93;100.00
74169;BME280;62523;53.336;83.690;2024-01-30T13:16:20;100583.53;;;-14.87;100.00
74169;BME280;62523;53.336;83.690;2024-01-30T13:21:21;100582.38;;;-14.79;100.00
74169;BME280;62523;53.336;83.690;2024-01-30T13:26:23;100581.50;;;-14.79;100.00
74169;BME280;62523;53.336;83.690;2024-01-30T13:31:24;100578.28;;;-14.77;100.00
74169;BME280;62523;53.336;83.690;2024-01-30T13:36:26;100577.22;;;-14.67;100.00
74169;BME280;62523;53.336;83.690;2024-01-30T13:41:27;100577.03;;;-14.70;100.00
74169;BME280;62523;53.336;83.690;2024-01-30T13:46:30;100577.50;;;-14.76;100.00
74169;BME280;62523;53.336;83.690;2024-01-30T13:51:39;100564.97;;;-14.74;100.00
74169;BME280;62523;53.336;83.690;2024-01-30T13:56:41;100573.53;;;-14.72;100.00
74169;BME280;62523;53.336;83.690;2024-01-30T14:01:42;100566.41;;;-14.65;100.00
74169;BME280;62523;53.336;83.690;2024-01-30T14:06:44;100561.34;;;-14.65;100.00
74169;BME280;62523;53.336;83.690;2024-01-30T14:11:45;100549.97;;;-14.71;100.00
74169;BME280;62523;53.336;83.690;2024-01-30T14:16:47;100554.25;;;-14.70;100.00
74169;BME280;62523;53.336;83.690;2024-01-30T14:21:48;100542.88;;;-14.77;100.00
74169;BME280;62523;53.336;83.690;2024-01-30T14:26:50;100535.69;;;-14.71;100.00
74169;BME280;62523;53.336;83.690;2024-01-30T14:31:52;100536.75;;;-14.80;100.00
74169;BME280;62523;53.336;83.690;2024-01-30T14:36:53;100528.28;;;-14.81;100.00
74169;BME280;62523;53.336;83.690;2024-01-30T14:41:56;100522.25;;;-14.83;100.00
74169;BME280;62523;53.336;83.690;2024-01-30T14:46:57;100512.59;;;-14.75;100.00
74169;BME280;62523;53.336;83.690;2024-01-30T14:51:59;100518.34;;;-14.78;100.00
74169;BME280;62523;53.336;83.690;2024-01-30T14:57:01;100503.69;;;-14.83;100.00
74169;BME280;62523;53.336;83.690;2024-01-30T15:02:03;100508.63;;;-14.85;100.00
74169;BME280;62523;53.336;83.690;2024-01-30T15:07:05;100497.13;;;-14.80;100.00
74169;BME280;62523;53.336;83.690;2024-01-30T15:12:07;100488.91;;;-14.77;100.00
74169;BME280;62523;53.336;83.690;2024-01-30T15:17:08;100485.16;;;-14.69;100.00
74169;BME280;62523;53.336;83.690;2024-01-30T15:22:09;100484.31;;;-14.70;100.00
74169;BME280;62523;53.336;83.690;2024-01-30T15:27:11;100474.06;;;-14.71;100.00
74169;BME280;62523;53.336;83.690;2024-01-30T15:32:12;100473.97;;;-14.59;100.00
74169;BME280;62523;53.336;83.690;2024-01-30T15:37:14;100476.16;;;-14.51;100.00
74169;BME280;62523;53.336;83.690;2024-01-30T15:42:15;100475.94;;;-14.55;100.00
74169;BME280;62523;53.336;83.690;2024-01-30T15:47:17;100469.09;;;-14.56;100.00
74169;BME280;62523;53.336;83.690;2024-01-30T15:52:19;100465.81;;;-14.55;100.00
74169;BME280;62523;53.336;83.690;2024-01-30T15:57:20;100462.41;;;-14.56;100.00
74169;BME280;62523;53.336;83.690;2024-01-30T16:02:22;100458.47;;;-14.51;100.00
74169;BME280;62523;53.336;83.690;2024-01-30T16:07:42;100458.47;;;-14.51;100.00
74169;BME280;62523;53.336;83.690;2024-01-30T16:12:46;100456.03;;;-14.49;100.00
74169;BME280;62523;53.336;83.690;2024-01-30T16:18:06;100449.31;;;-14.49;100.00
74169;BME280;62523;53.336;83.690;2024-01-30T16:23:26;100442.09;;;-14.43;100.00
74169;BME280;62523;53.336;83.690;2024-01-30T16:28:30;100435.38;;;-14.42;100.00
74169;BME280;62523;53.336;83.690;2024-01-30T16:33:52;100434.69;;;-14.39;100.00
74169;BME280;62523;53.336;83.690;2024-01-30T16:39:12;100427.94;;;-14.39;100.00
74169;BME280;62523;53.336;83.690;2024-01-30T16:44:31;100429.06;;;-14.49;100.00
74169;BME280;62523;53.336;83.690;2024-01-30T16:49:51;100429.75;;;-14.51;100.00
74169;BME280;62523;53.336;83.690;2024-01-30T16:55:11;100430.00;;;-14.61;100.00
74169;BME280;62523;53.336;83.690;2024-01-30T17:00:32;100415.31;;;-14.67;100.00
74169;BME280;62523;53.336;83.690;2024-01-30T17:05:53;100414.34;;;-14.69;100.00
74169;BME280;62523;53.336;83.690;2024-01-30T17:11:15;100406.56;;;-14.72;100.00
74169;BME280;62523;53.336;83.690;2024-01-30T17:16:39;100411.41;;;-14.75;100.00
74169;BME280;62523;53.336;83.690;2024-01-30T17:21:42;100414.47;;;-14.81;100.00
74169;BME280;62523;53.336;83.690;2024-01-30T17:26:43;100404.75;;;-14.88;100.00
74169;BME280;62523;53.336;83.690;2024-01-30T17:31:45;100413.50;;;-14.96;100.00
74169;BME280;62523;53.336;83.690;2024-01-30T17:36:46;100406.31;;;-15.03;100.00
74169;BME280;62523;53.336;83.690;2024-01-30T17:41:48;100411.94;;;-15.08;100.00
74169;BME280;62523;53.336;83.690;2024-01-30T17:46:51;100405.03;;;-15.10;100.00
74169;BME280;62523;53.336;83.690;2024-01-30T17:51:53;100399.03;;;-15.12;100.00
74169;BME280;62523;53.336;83.690;2024-01-30T17:56:54;100385.63;;;-15.11;100.00
74169;BME280;62523;53.336;83.690;2024-01-30T18:01:56;100390.56;;;-15.13;100.00
74169;BME280;62523;53.336;83.690;2024-01-30T18:06:57;100388.72;;;-15.15;100.00
74169;BME280;62523;53.336;83.690;2024-01-30T18:11:59;100381.84;;;-15.18;100.00
74169;BME280;62523;53.336;83.690;2024-01-30T18:17:01;100374.72;;;-15.23;100.00
74169;BME280;62523;53.336;83.690;2024-01-30T18:22:03;100369.78;;;-15.35;100.00
74169;BME280;62523;53.336;83.690;2024-01-30T18:27:06;100367.91;;;-15.38;100.00
74169;BME280;62523;53.336;83.690;2024-01-30T18:32:08;100356.47;;;-15.33;100.00
74169;BME280;62523;53.336;83.690;2024-01-30T18:37:09;100357.16;;;-15.35;100.00
74169;BME280;62523;53.336;83.690;2024-01-30T18:42:11;100354.63;;;-15.35;100.00
74169;BME280;62523;53.336;83.690;2024-01-30T18:47:12;100352.69;;;-15.39;100.00
74169;BME280;62523;53.336;83.690;2024-01-30T18:52:14;100348.56;;;-15.51;100.00
74169;BME280;62523;53.336;83.690;2024-01-30T18:57:15;100346.56;;;-15.56;100.00
74169;BME280;62523;53.336;83.690;2024-01-30T19:02:17;100351.88;;;-15.65;100.00
74169;BME280;62523;53.336;83.690;2024-01-30T19:07:18;100360.16;;;-15.68;100.00
74169;BME280;62523;53.336;83.690;2024-01-30T19:12:21;100351.53;;;-15.71;100.00
74169;BME280;62523;53.336;83.690;2024-01-30T19:17:22;100348.38;;;-15.67;100.00
74169;BME280;62523;53.336;83.690;2024-01-30T19:22:25;100349.75;;;-15.72;100.00
74169;BME280;62523;53.336;83.690;2024-01-30T19:27:27;100347.72;;;-15.78;100.00
74169;BME280;62523;53.336;83.690;2024-01-30T19:32:29;100346.34;;;-15.86;100.00
74169;BME280;62523;53.336;83.690;2024-01-30T19:37:30;100339.47;;;-15.89;100.00
74169;BME280;62523;53.336;83.690;2024-01-30T19:42:33;100336.91;;;-16.02;100.00
74169;BME280;62523;53.336;83.690;2024-01-30T19:47:35;100327.97;;;-15.97;100.00
74169;BME280;62523;53.336;83.690;2024-01-30T19:52:37;100321.25;;;-16.10;100.00
74169;BME280;62523;53.336;83.690;2024-01-30T19:57:40;100326.97;;;-16.12;100.00
74169;BME280;62523;53.336;83.690;2024-01-30T20:02:42;100337.09;;;-16.12;100.00
74169;BME280;62523;53.336;83.690;2024-01-30T20:07:44;100333.34;;;-16.17;100.00
74169;BME280;62523;53.336;83.690;2024-01-30T20:12:45;100342.59;;;-16.18;100.00
74169;BME280;62523;53.336;83.690;2024-01-30T20:17:47;100333.16;;;-16.20;100.00
74169;BME280;62523;53.336;83.690;2024-01-30T20:22:48;100332.00;;;-16.25;100.00
74169;BME280;62523;53.336;83.690;2024-01-30T20:27:50;100334.59;;;-16.24;100.00
74169;BME280;62523;53.336;83.690;2024-01-30T20:32:51;100333.44;;;-16.29;100.00
74169;BME280;62523;53.336;83.690;2024-01-30T20:37:52;100333.81;;;-16.36;100.00
74169;BME280;62523;53.336;83.690;2024-01-30T20:42:54;100325.28;;;-16.38;100.00
74169;BME280;62523;53.336;83.690;2024-01-30T20:47:55;100320.00;;;-16.41;100.00
74169;BME280;62523;53.336;83.690;2024-01-30T20:52:57;100312.13;;;-16.46;100.00
74169;BME280;62523;53.336;83.690;2024-01-30T20:57:58;100304.25;;;-16.51;100.00
74169;BME280;62523;53.336;83.690;2024-01-30T21:02:59;100298.81;;;-16.57;100.00
74169;BME280;62523;53.336;83.690;2024-01-30T21:08:01;100296.41;;;-16.55;100.00
74169;BME280;62523;53.336;83.690;2024-01-30T21:13:02;100290.78;;;-16.51;100.00
74169;BME280;62523;53.336;83.690;2024-01-30T21:18:04;100280.75;;;-16.63;100.00
74169;BME280;62523;53.336;83.690;2024-01-30T21:23:08;100278.03;;;-16.66;100.00
74169;BME280;62523;53.336;83.690;2024-01-30T21:28:10;100273.16;;;-16.63;100.00
74169;BME280;62523;53.336;83.690;2024-01-30T21:33:12;100272.13;;;-16.66;100.00
74169;BME280;62523;53.336;83.690;2024-01-30T21:38:14;100272.88;;;-16.67;100.00
74169;BME280;62523;53.336;83.690;2024-01-30T21:43:20;100267.53;;;-16.72;100.00
74169;BME280;62523;53.336;83.690;2024-01-30T21:48:21;100272.94;;;-16.79;100.00
74169;BME280;62523;53.336;83.690;2024-01-30T21:53:23;100264.88;;;-16.87;100.00
74169;BME280;62523;53.336;83.690;2024-01-30T21:58:24;100274.22;;;-16.86;100.00
74169;BME280;62523;53.336;83.690;2024-01-30T22:03:25;100276.81;;;-16.84;100.00
74169;BME280;62523;53.336;83.690;2024-01-30T22:08:27;100262.47;;;-16.85;100.00
74169;BME280;62523;53.336;83.690;2024-01-30T22:13:28;100252.78;;;-16.79;100.00
74169;BME280;62523;53.336;83.690;2024-01-30T22:18:30;100251.59;;;-16.84;100.00
74169;BME280;62523;53.336;83.690;2024-01-30T22:23:31;100253.16;;;-16.86;100.00
74169;BME280;62523;53.336;83.690;2024-01-30T22:28:33;100254.50;;;-16.92;100.00
74169;BME280;62523;53.336;83.690;2024-01-30T22:33:34;100250.00;;;-16.96;100.00
74169;BME280;62523;53.336;83.690;2024-01-30T22:38:36;100236.31;;;-16.99;100.00
74169;BME280;62523;53.336;83.690;2024-01-30T22:43:37;100243.13;;;-16.98;100.00
74169;BME280;62523;53.336;83.690;2024-01-30T22:48:39;100251.25;;;-17.02;100.00
74169;BME280;62523;53.336;83.690;2024-01-30T22:53:40;100246.22;;;-17.14;100.00
74169;BME280;62523;53.336;83.690;2024-01-30T22:58:41;100242.22;;;-17.24;100.00
74169;BME280;62523;53.336;83.690;2024-01-30T23:03:43;100249.41;;;-17.17;100.00
74169;BME280;62523;53.336;83.690;2024-01-30T23:08:44;100248.34;;;-17.20;100.00
74169;BME280;62523;53.336;83.690;2024-01-30T23:13:46;100242.09;;;-17.14;100.00
74169;BME280;62523;53.336;83.690;2024-01-30T23:18:47;100241.19;;;-17.14;100.00
74169;BME280;62523;53.336;83.690;2024-01-30T23:23:49;100241.31;;;-17.13;100.00
74169;BME280;62523;53.336;83.690;2024-01-30T23:28:50;100228.59;;;-17.14;100.00
74169;BME280;62523;53.336;83.690;2024-01-30T23:33:52;100233.25;;;-17.20;100.00
74169;BME280;62523;53.336;83.690;2024-01-30T23:38:53;100236.50;;;-17.21;100.00
74169;BME280;62523;53.336;83.690;2024-01-30T23:43:55;100242.00;;;-17.27;100.00
74169;BME280;62523;53.336;83.690;2024-01-30T23:48:58;100239.72;;;-17.36;100.00
74169;BME280;62523;53.336;83.690;2024-01-30T23:54:01;100221.66;;;-17.30;100.00
74169;BME280;62523;53.336;83.690;2024-01-30T23:59:03;100228.28;;;-17.44;100.00
